Terminal Aerodrome Forecast
Issued by NWS

Home | Current Version | Previous Version | Graphics & Text | Print | Product List | Glossary On
Versions: 1 2 3 4 5 6 7 8 9 10 11 12 13 14 15 16 17 18
000
FTUS43 KICT 241720
TAFCNU
TAF
KCNU 241720Z 2418/2518 36008KT P6SM FEW250
     FM250300 35007KT P6SM VCSH BKN150
     FM250800 33011KT P6SM VCSH OVC060
     FM251000 33010KT 6SM -SHRA OVC025
     FM251300 34006KT 6SM -SHRA OVC010=

USA.gov is the U.S. government's official web portal to all federal, state and local government web resources and services.